sensor_id;sensor_type;location;lat;lon;timestamp;pressure;altitude;pressure_sealevel;temperature;humidity
69171;BME280;56279;47.902;12.308;2023-03-26T00:01:27;94945.53;;;8.78;61.40
69171;BME280;56279;47.902;12.308;2023-03-26T00:03:29;94953.69;;;8.81;60.87
69171;BME280;56279;47.902;12.308;2023-03-26T00:05:31;94947.09;;;8.84;61.34
69171;BME280;56279;47.902;12.308;2023-03-26T00:07:32;94959.97;;;8.85;61.27
69171;BME280;56279;47.902;12.308;2023-03-26T00:09:34;94953.66;;;8.86;61.18
69171;BME280;56279;47.902;12.308;2023-03-26T00:11:35;94955.16;;;8.92;61.17
69171;BME280;56279;47.902;12.308;2023-03-26T00:13:37;94944.91;;;8.96;60.70
69171;BME280;56279;47.902;12.308;2023-03-26T00:15:38;94954.63;;;8.95;60.99
69171;BME280;56279;47.902;12.308;2023-03-26T00:17:40;94944.91;;;8.96;60.57
69171;BME280;56279;47.902;12.308;2023-03-26T00:19:42;94956.19;;;8.96;60.75
69171;BME280;56279;47.902;12.308;2023-03-26T00:21:43;94950.16;;;8.96;60.90
69171;BME280;56279;47.902;12.308;2023-03-26T00:23:44;94953.03;;;8.94;60.92
69171;BME280;56279;47.902;12.308;2023-03-26T00:25:46;94941.72;;;8.94;60.76
69171;BME280;56279;47.902;12.308;2023-03-26T00:27:50;94947.78;;;8.94;60.63
69171;BME280;56279;47.902;12.308;2023-03-26T00:29:52;94943.59;;;8.93;61.14
69171;BME280;56279;47.902;12.308;2023-03-26T00:31:56;94934.91;;;8.93;61.14
69171;BME280;56279;47.902;12.308;2023-03-26T00:33:58;94940.19;;;8.93;60.73
69171;BME280;56279;47.902;12.308;2023-03-26T00:36:05;94943.59;;;8.93;61.14
69171;BME280;56279;47.902;12.308;2023-03-26T00:38:06;94942.00;;;8.92;60.94
69171;BME280;56279;47.902;12.308;2023-03-26T00:40:08;94936.75;;;8.92;60.84
69171;BME280;56279;47.902;12.308;2023-03-26T00:42:13;94938.59;;;8.92;60.96
69171;BME280;56279;47.902;12.308;2023-03-26T00:44:14;94942.81;;;8.93;60.83
69171;BME280;56279;47.902;12.308;2023-03-26T00:46:16;94936.47;;;8.94;60.89
69171;BME280;56279;47.902;12.308;2023-03-26T00:48:18;94931.75;;;8.96;60.70
69171;BME280;56279;47.902;12.308;2023-03-26T00:50:19;94925.41;;;8.97;61.10
69171;BME280;56279;47.902;12.308;2023-03-26T00:52:20;94929.09;;;8.96;61.00
69171;BME280;56279;47.902;12.308;2023-03-26T00:54:22;94923.06;;;8.95;60.86
69171;BME280;56279;47.902;12.308;2023-03-26T00:56:23;94916.22;;;8.94;61.16
69171;BME280;56279;47.902;12.308;2023-03-26T00:58:25;94921.47;;;8.94;61.27
69171;BME280;56279;47.902;12.308;2023-03-26T01:00:33;94909.94;;;8.90;61.59
69171;BME280;56279;47.902;12.308;2023-03-26T01:02:35;94912.84;;;8.89;61.46
69171;BME280;56279;47.902;12.308;2023-03-26T01:04:38;94920.78;;;8.84;61.60
69171;BME280;56279;47.902;12.308;2023-03-26T01:06:39;94932.34;;;8.83;61.67
69171;BME280;56279;47.902;12.308;2023-03-26T01:08:44;94916.84;;;8.81;62.00
69171;BME280;56279;47.902;12.308;2023-03-26T01:10:46;94926.03;;;8.84;62.18
69171;BME280;56279;47.902;12.308;2023-03-26T01:12:52;94915.50;;;8.84;62.24
69171;BME280;56279;47.902;12.308;2023-03-26T01:14:57;94918.97;;;8.79;61.87
69171;BME280;56279;47.902;12.308;2023-03-26T01:17:03;94911.63;;;8.76;62.55
69171;BME280;56279;47.902;12.308;2023-03-26T01:19:13;94922.69;;;8.73;62.28
69171;BME280;56279;47.902;12.308;2023-03-26T01:21:20;94923.75;;;8.72;62.63
69171;BME280;56279;47.902;12.308;2023-03-26T01:23:30;94918.50;;;8.72;62.93
69171;BME280;56279;47.902;12.308;2023-03-26T01:25:38;94919.00;;;8.74;63.04
69171;BME280;56279;47.902;12.308;2023-03-26T01:27:49;94928.75;;;8.74;62.78
69171;BME280;56279;47.902;12.308;2023-03-26T01:30:04;94917.94;;;8.75;62.77
69171;BME280;56279;47.902;12.308;2023-03-26T01:32:26;94920.56;;;8.75;62.79
69171;BME280;56279;47.902;12.308;2023-03-26T01:39:20;94916.63;;;8.73;63.53
69171;BME280;56279;47.902;12.308;2023-03-26T01:43:27;94906.34;;;8.76;63.31
69171;BME280;56279;47.902;12.308;2023-03-26T01:45:33;94908.19;;;8.76;63.62
69171;BME280;56279;47.902;12.308;2023-03-26T01:47:37;94908.72;;;8.78;63.82
69171;BME280;56279;47.902;12.308;2023-03-26T01:49:39;94903.44;;;8.78;63.66
69171;BME280;56279;47.902;12.308;2023-03-26T01:51:41;94912.41;;;8.77;63.67
69171;BME280;56279;47.902;12.308;2023-03-26T01:53:45;94911.91;;;8.75;63.76
69171;BME280;56279;47.902;12.308;2023-03-26T01:56:10;94916.13;;;8.71;63.69
69171;BME280;56279;47.902;12.308;2023-03-26T01:58:30;94910.63;;;8.67;64.24
69171;BME280;56279;47.902;12.308;2023-03-26T02:00:47;94900.94;;;8.63;64.07
69171;BME280;56279;47.902;12.308;2023-03-26T02:05:21;94910.47;;;8.54;64.58
69171;BME280;56279;47.902;12.308;2023-03-26T02:07:28;94904.97;;;8.50;64.82
69171;BME280;56279;47.902;12.308;2023-03-26T02:09:44;94897.91;;;8.46;64.70
69171;BME280;56279;47.902;12.308;2023-03-26T02:11:48;94892.13;;;8.44;65.09
69171;BME280;56279;47.902;12.308;2023-03-26T02:13:50;94895.81;;;8.43;65.17
69171;BME280;56279;47.902;12.308;2023-03-26T02:15:58;94896.09;;;8.41;65.31
69171;BME280;56279;47.902;12.308;2023-03-26T02:17:59;94889.28;;;8.40;65.84
69171;BME280;56279;47.902;12.308;2023-03-26T02:20:02;94890.59;;;8.38;65.58
69171;BME280;56279;47.902;12.308;2023-03-26T02:22:10;94891.94;;;8.35;65.71
69171;BME280;56279;47.902;12.308;2023-03-26T02:24:18;94883.25;;;8.34;65.70
69171;BME280;56279;47.902;12.308;2023-03-26T02:26:20;94894.56;;;8.35;65.99
69171;BME280;56279;47.902;12.308;2023-03-26T02:28:39;94898.75;;;8.36;65.78
69171;BME280;56279;47.902;12.308;2023-03-26T02:30:41;94892.94;;;8.39;66.09
69171;BME280;56279;47.902;12.308;2023-03-26T02:32:43;94887.97;;;8.38;66.16
69171;BME280;56279;47.902;12.308;2023-03-26T02:34:45;94895.06;;;8.37;66.34
69171;BME280;56279;47.902;12.308;2023-03-26T02:36:47;94890.34;;;8.34;66.01
69171;BME280;56279;47.902;12.308;2023-03-26T02:38:49;94892.22;;;8.28;66.24
69171;BME280;56279;47.902;12.308;2023-03-26T02:40:53;94893.56;;;8.26;66.71
69171;BME280;56279;47.902;12.308;2023-03-26T02:42:57;94887.00;;;8.23;66.20
69171;BME280;56279;47.902;12.308;2023-03-26T02:44:59;94883.06;;;8.21;66.42
69171;BME280;56279;47.902;12.308;2023-03-26T02:47:23;94883.59;;;8.18;66.88
69171;BME280;56279;47.902;12.308;2023-03-26T02:49:27;94889.66;;;8.13;66.98
69171;BME280;56279;47.902;12.308;2023-03-26T02:51:29;94889.19;;;8.06;67.76
69171;BME280;56279;47.902;12.308;2023-03-26T02:53:42;94889.72;;;8.03;67.91
69171;BME280;56279;47.902;12.308;2023-03-26T02:56:13;94878.69;;;8.01;67.80
69171;BME280;56279;47.902;12.308;2023-03-26T02:58:26;94885.03;;;8.00;68.01
69171;BME280;56279;47.902;12.308;2023-03-26T03:00:31;94875.56;;;7.99;67.85
69171;BME280;56279;47.902;12.308;2023-03-26T03:02:52;94881.31;;;8.01;68.00
69171;BME280;56279;47.902;12.308;2023-03-26T03:05:06;94868.69;;;8.03;67.83
69171;BME280;56279;47.902;12.308;2023-03-26T03:07:08;94875.25;;;8.06;67.81
69171;BME280;56279;47.902;12.308;2023-03-26T03:09:14;94868.66;;;8.08;67.81
69171;BME280;56279;47.902;12.308;2023-03-26T03:11:18;94865.25;;;8.08;67.84
69171;BME280;56279;47.902;12.308;2023-03-26T03:13:25;94863.94;;;8.05;68.29
69171;BME280;56279;47.902;12.308;2023-03-26T03:15:27;94863.19;;;8.05;67.95
69171;BME280;56279;47.902;12.308;2023-03-26T03:17:28;94859.25;;;8.02;68.61
69171;BME280;56279;47.902;12.308;2023-03-26T03:19:30;94848.75;;;8.02;68.56
69171;BME280;56279;47.902;12.308;2023-03-26T03:21:32;94852.91;;;8.03;68.65
69171;BME280;56279;47.902;12.308;2023-03-26T03:23:33;94849.50;;;8.03;68.25
69171;BME280;56279;47.902;12.308;2023-03-26T03:25:43;94846.13;;;8.02;68.51
69171;BME280;56279;47.902;12.308;2023-03-26T03:27:44;94838.22;;;8.02;68.37
69171;BME280;56279;47.902;12.308;2023-03-26T03:29:47;94828.75;;;8.01;68.49
69171;BME280;56279;47.902;12.308;2023-03-26T03:32:08;94834.53;;;8.03;68.94
69171;BME280;56279;47.902;12.308;2023-03-26T03:34:19;94834.53;;;8.03;68.45
69171;BME280;56279;47.902;12.308;2023-03-26T03:36:25;94832.41;;;8.05;68.79
69171;BME280;56279;47.902;12.308;2023-03-26T03:38:51;94823.50;;;8.01;68.58
69171;BME280;56279;47.902;12.308;2023-03-26T03:40:54;94823.78;;;8.00;68.56
69171;BME280;56279;47.902;12.308;2023-03-26T03:43:00;94822.22;;;7.99;69.34
69171;BME280;56279;47.902;12.308;2023-03-26T03:45:11;94823.53;;;7.96;69.58
69171;BME280;56279;47.902;12.308;2023-03-26T03:47:28;94820.16;;;7.96;69.71
69171;BME280;56279;47.902;12.308;2023-03-26T03:49:30;94819.34;;;7.95;69.56
69171;BME280;56279;47.902;12.308;2023-03-26T03:51:32;94814.09;;;7.95;69.62
69171;BME280;56279;47.902;12.308;2023-03-26T03:53:36;94809.91;;;7.94;69.69
69171;BME280;56279;47.902;12.308;2023-03-26T03:55:41;94811.72;;;7.94;69.96
69171;BME280;56279;47.902;12.308;2023-03-26T03:57:43;94809.63;;;7.96;69.64
69171;BME280;56279;47.902;12.308;2023-03-26T03:59:50;94817.25;;;7.97;69.19
69171;BME280;56279;47.902;12.308;2023-03-26T04:01:52;94814.31;;;7.99;69.52
69171;BME280;56279;47.902;12.308;2023-03-26T04:04:07;94807.47;;;8.03;69.18
69171;BME280;56279;47.902;12.308;2023-03-26T04:06:32;94806.13;;;8.05;69.47
69171;BME280;56279;47.902;12.308;2023-03-26T04:08:33;94801.66;;;8.06;69.42
69171;BME280;56279;47.902;12.308;2023-03-26T04:10:35;94794.81;;;8.10;68.82
69171;BME280;56279;47.902;12.308;2023-03-26T04:12:36;94793.47;;;8.12;69.36
69171;BME280;56279;47.902;12.308;2023-03-26T04:14:39;94798.72;;;8.12;69.31
69171;BME280;56279;47.902;12.308;2023-03-26T04:16:52;94798.72;;;8.12;69.21
69171;BME280;56279;47.902;12.308;2023-03-26T04:18:53;94803.97;;;8.12;69.00
69171;BME280;56279;47.902;12.308;2023-03-26T04:20:55;94797.97;;;8.12;69.12
69171;BME280;56279;47.902;12.308;2023-03-26T04:23:00;94799.53;;;8.13;69.15
69171;BME280;56279;47.902;12.308;2023-03-26T04:25:02;94801.91;;;8.14;69.66
69171;BME280;56279;47.902;12.308;2023-03-26T04:27:21;94795.06;;;8.13;69.44
69171;BME280;56279;47.902;12.308;2023-03-26T04:29:37;94790.59;;;8.14;69.40
69171;BME280;56279;47.902;12.308;2023-03-26T04:31:46;94792.94;;;8.15;68.82
69171;BME280;56279;47.902;12.308;2023-03-26T04:33:51;94793.44;;;8.17;69.13
69171;BME280;56279;47.902;12.308;2023-03-26T04:35:56;94803.69;;;8.19;69.23
69171;BME280;56279;47.902;12.308;2023-03-26T04:38:03;94806.56;;;8.22;68.92
69171;BME280;56279;47.902;12.308;2023-03-26T04:40:15;94798.66;;;8.22;68.91
69171;BME280;56279;47.902;12.308;2023-03-26T04:42:34;94796.81;;;8.23;69.38
69171;BME280;56279;47.902;12.308;2023-03-26T04:44:47;94805.25;;;8.20;70.06
69171;BME280;56279;47.902;12.308;2023-03-26T04:46:51;94813.97;;;8.15;70.52
69171;BME280;56279;47.902;12.308;2023-03-26T04:49:19;94802.22;;;8.03;71.58
69171;BME280;56279;47.902;12.308;2023-03-26T04:51:25;94810.69;;;7.95;72.48
69171;BME280;56279;47.902;12.308;2023-03-26T04:53:28;94812.81;;;7.88;72.50
69171;BME280;56279;47.902;12.308;2023-03-26T04:55:48;94805.50;;;7.80;73.12
69171;BME280;56279;47.902;12.308;2023-03-26T04:58:02;94800.31;;;7.75;73.77
69171;BME280;56279;47.902;12.308;2023-03-26T05:00:25;94794.81;;;7.66;73.94
69171;BME280;56279;47.902;12.308;2023-03-26T05:02:33;94798.03;;;7.58;74.52
69171;BME280;56279;47.902;12.308;2023-03-26T05:04:37;94805.13;;;7.52;75.05
69171;BME280;56279;47.902;12.308;2023-03-26T05:06:44;94799.91;;;7.47;75.23
69171;BME280;56279;47.902;12.308;2023-03-26T05:08:59;94798.38;;;7.41;76.02
69171;BME280;56279;47.902;12.308;2023-03-26T05:11:22;94802.84;;;7.36;75.64
69171;BME280;56279;47.902;12.308;2023-03-26T05:13:24;94790.00;;;7.34;76.35
69171;BME280;56279;47.902;12.308;2023-03-26T05:15:28;94787.38;;;7.34;76.63
69171;BME280;56279;47.902;12.308;2023-03-26T05:17:45;94787.38;;;7.34;76.52
69171;BME280;56279;47.902;12.308;2023-03-26T05:20:02;94778.72;;;7.34;77.07
69171;BME280;56279;47.902;12.308;2023-03-26T05:22:05;94785.78;;;7.33;77.20
69171;BME280;56279;47.902;12.308;2023-03-26T05:24:11;94785.00;;;7.33;77.39
69171;BME280;56279;47.902;12.308;2023-03-26T05:26:13;94774.50;;;7.33;77.36
69171;BME280;56279;47.902;12.308;2023-03-26T05:28:14;94771.88;;;7.33;77.96
69171;BME280;56279;47.902;12.308;2023-03-26T05:30:25;94768.75;;;7.31;77.73
69171;BME280;56279;47.902;12.308;2023-03-26T05:32:31;94761.94;;;7.30;78.07
69171;BME280;56279;47.902;12.308;2023-03-26T05:34:33;94757.47;;;7.30;78.72
69171;BME280;56279;47.902;12.308;2023-03-26T05:36:36;94756.94;;;7.28;78.78
69171;BME280;56279;47.902;12.308;2023-03-26T05:38:56;94745.41;;;7.29;78.47
69171;BME280;56279;47.902;12.308;2023-03-26T05:41:20;94746.44;;;7.28;79.00
69171;BME280;56279;47.902;12.308;2023-03-26T05:43:24;94746.44;;;7.28;78.74
69171;BME280;56279;47.902;12.308;2023-03-26T05:45:46;94741.19;;;7.28;78.71
69171;BME280;56279;47.902;12.308;2023-03-26T05:48:02;94744.88;;;7.27;78.84
69171;BME280;56279;47.902;12.308;2023-03-26T05:50:04;94735.19;;;7.28;79.18
69171;BME280;56279;47.902;12.308;2023-03-26T05:52:11;94726.81;;;7.26;79.61
69171;BME280;56279;47.902;12.308;2023-03-26T05:54:33;94730.47;;;7.25;79.53
69171;BME280;56279;47.902;12.308;2023-03-26T05:56:56;94722.09;;;7.23;79.35
69171;BME280;56279;47.902;12.308;2023-03-26T05:59:26;94723.13;;;7.22;79.64
69171;BME280;56279;47.902;12.308;2023-03-26T06:02:00;94711.59;;;7.18;79.73
69171;BME280;56279;47.902;12.308;2023-03-26T06:04:21;94716.06;;;7.17;79.25
69171;BME280;56279;47.902;12.308;2023-03-26T06:06:54;94712.66;;;7.17;79.47
69171;BME280;56279;47.902;12.308;2023-03-26T06:08:59;94707.41;;;7.17;80.18
69171;BME280;56279;47.902;12.308;2023-03-26T06:11:04;94700.59;;;7.16;80.50
69171;BME280;56279;47.902;12.308;2023-03-26T06:13:10;94701.91;;;7.18;80.47
69171;BME280;56279;47.902;12.308;2023-03-26T06:15:14;94698.22;;;7.19;80.90
69171;BME280;56279;47.902;12.308;2023-03-26T06:17:27;94695.34;;;7.21;80.93
69171;BME280;56279;47.902;12.308;2023-03-26T06:20:00;94687.44;;;7.26;81.07
69171;BME280;56279;47.902;12.308;2023-03-26T06:22:30;94669.81;;;7.31;81.01
69171;BME280;56279;47.902;12.308;2023-03-26T06:24:50;94661.09;;;7.36;80.45
69171;BME280;56279;47.902;12.308;2023-03-26T06:27:18;94665.28;;;7.42;80.89
69171;BME280;56279;47.902;12.308;2023-03-26T06:29:23;94670.75;;;7.45;80.79
69171;BME280;56279;47.902;12.308;2023-03-26T06:31:33;94676.53;;;7.47;80.56
69171;BME280;56279;47.902;12.308;2023-03-26T06:34:06;94682.56;;;7.48;80.96
69171;BME280;56279;47.902;12.308;2023-03-26T06:36:08;94693.84;;;7.48;81.13
69171;BME280;56279;47.902;12.308;2023-03-26T06:38:10;94702.53;;;7.49;80.94
69171;BME280;56279;47.902;12.308;2023-03-26T06:40:13;94708.28;;;7.51;80.79
69171;BME280;56279;47.902;12.308;2023-03-26T06:42:42;94699.84;;;7.54;80.74
69171;BME280;56279;47.902;12.308;2023-03-26T06:45:05;94699.31;;;7.52;81.23
69171;BME280;56279;47.902;12.308;2023-03-26T06:47:25;94696.19;;;7.50;81.16
69171;BME280;56279;47.902;12.308;2023-03-26T06:50:02;94689.94;;;7.46;80.91
69171;BME280;56279;47.902;12.308;2023-03-26T06:52:27;94690.22;;;7.44;81.10
69171;BME280;56279;47.902;12.308;2023-03-26T06:54:59;94689.41;;;7.44;81.33
69171;BME280;56279;47.902;12.308;2023-03-26T06:57:20;94683.09;;;7.45;81.45
69171;BME280;56279;47.902;12.308;2023-03-26T06:59:51;94672.59;;;7.45;81.23
69171;BME280;56279;47.902;12.308;2023-03-26T07:02:12;94664.72;;;7.45;81.71
69171;BME280;56279;47.902;12.308;2023-03-26T07:04:42;94659.72;;;7.48;81.61
69171;BME280;56279;47.902;12.308;2023-03-26T07:07:02;94656.78;;;7.55;81.82
69171;BME280;56279;47.902;12.308;2023-03-26T07:09:39;94644.41;;;7.60;81.54
69171;BME280;56279;47.902;12.308;2023-03-26T07:12:03;94643.81;;;7.68;81.61
69171;BME280;56279;47.902;12.308;2023-03-26T07:14:23;94646.13;;;7.75;81.33
69171;BME280;56279;47.902;12.308;2023-03-26T07:16:38;94648.19;;;7.78;81.99
69171;BME280;56279;47.902;12.308;2023-03-26T07:19:02;94645.53;;;7.83;81.90
69171;BME280;56279;47.902;12.308;2023-03-26T07:21:09;94634.50;;;7.86;81.64
69171;BME280;56279;47.902;12.308;2023-03-26T07:23:11;94629.16;;;7.91;81.87
69171;BME280;56279;47.902;12.308;2023-03-26T07:25:36;94618.84;;;8.00;82.15
69171;BME280;56279;47.902;12.308;2023-03-26T07:30:14;94608.09;;;8.25;82.07
69171;BME280;56279;47.902;12.308;2023-03-26T07:34:55;94595.34;;;8.61;81.13
69171;BME280;56279;47.902;12.308;2023-03-26T07:37:35;94591.66;;;8.80;80.41
69171;BME280;56279;47.902;12.308;2023-03-26T07:45:45;94548.97;;;9.39;79.70
69171;BME280;56279;47.902;12.308;2023-03-26T07:48:16;94545.03;;;9.55;78.98
69171;BME280;56279;47.902;12.308;2023-03-26T07:50:41;94535.00;;;9.71;78.58
69171;BME280;56279;47.902;12.308;2023-03-26T07:53:14;94524.50;;;9.85;78.28
69171;BME280;56279;47.902;12.308;2023-03-26T07:55:45;94506.63;;;9.95;77.88
69171;BME280;56279;47.902;12.308;2023-03-26T08:00:55;94485.00;;;10.12;77.54
69171;BME280;56279;47.902;12.308;2023-03-26T08:05:37;94473.34;;;10.13;77.46
69171;BME280;56279;47.902;12.308;2023-03-26T08:10:20;94461.28;;;10.12;77.43
69171;BME280;56279;47.902;12.308;2023-03-26T08:13:02;94449.63;;;10.13;76.93
69171;BME280;56279;47.902;12.308;2023-03-26T08:17:29;94445.44;;;10.12;76.87
69171;BME280;56279;47.902;12.308;2023-03-26T08:22:16;94447.56;;;10.10;77.37
69171;BME280;56279;47.902;12.308;2023-03-26T08:24:21;94449.13;;;10.11;77.19
69171;BME280;56279;47.902;12.308;2023-03-26T08:30:53;94460.53;;;10.06;77.13
69171;BME280;56279;47.902;12.308;2023-03-26T08:33:16;94445.81;;;10.05;77.12
69171;BME280;56279;47.902;12.308;2023-03-26T08:35:18;94451.28;;;10.09;77.40
69171;BME280;56279;47.902;12.308;2023-03-26T08:37:20;94443.84;;;10.11;77.15
69171;BME280;56279;47.902;12.308;2023-03-26T08:39:21;94444.34;;;10.13;77.12
69171;BME280;56279;47.902;12.308;2023-03-26T08:53:20;94411.53;;;10.68;74.98
69171;BME280;56279;47.902;12.308;2023-03-26T08:55:51;94400.00;;;10.86;74.76
69171;BME280;56279;47.902;12.308;2023-03-26T09:00:41;94369.59;;;11.20;73.40
69171;BME280;56279;47.902;12.308;2023-03-26T09:03:03;94364.69;;;11.35;72.70
69171;BME280;56279;47.902;12.308;2023-03-26T09:10:45;94375.50;;;11.56;72.07
69171;BME280;56279;47.902;12.308;2023-03-26T09:13:13;94375.69;;;11.59;71.76
69171;BME280;56279;47.902;12.308;2023-03-26T09:15:48;94364.47;;;11.62;71.29
69171;BME280;56279;47.902;12.308;2023-03-26T09:24:40;94387.25;;;11.72;69.34
69171;BME280;56279;47.902;12.308;2023-03-26T09:36:48;94399.63;;;12.02;68.00
69171;BME280;56279;47.902;12.308;2023-03-26T09:39:05;94387.34;;;12.06;67.55
69171;BME280;56279;47.902;12.308;2023-03-26T09:41:17;94392.66;;;12.06;67.43
69171;BME280;56279;47.902;12.308;2023-03-26T09:48:13;94382.34;;;11.96;65.57
69171;BME280;56279;47.902;12.308;2023-03-26T09:50:27;94377.13;;;11.74;65.58
69171;BME280;56279;47.902;12.308;2023-03-26T10:02:39;94330.91;;;11.63;66.17
69171;BME280;56279;47.902;12.308;2023-03-26T10:16:19;94373.91;;;10.63;67.34
69171;BME280;56279;47.902;12.308;2023-03-26T10:27:52;94398.66;;;10.53;68.64
69171;BME280;56279;47.902;12.308;2023-03-26T10:36:36;94373.78;;;10.68;69.28
69171;BME280;56279;47.902;12.308;2023-03-26T10:38:57;94381.81;;;10.63;68.63
69171;BME280;56279;47.902;12.308;2023-03-26T10:41:15;94392.00;;;10.56;68.87
69171;BME280;56279;47.902;12.308;2023-03-26T10:48:54;94373.59;;;10.64;69.19
69171;BME280;56279;47.902;12.308;2023-03-26T10:51:13;94379.44;;;10.75;69.10
69171;BME280;56279;47.902;12.308;2023-03-26T10:55:32;94355.91;;;10.87;68.93
69171;BME280;56279;47.902;12.308;2023-03-26T10:58:02;94380.16;;;10.89;68.50
69171;BME280;56279;47.902;12.308;2023-03-26T11:00:16;94388.19;;;10.84;68.77
69171;BME280;56279;47.902;12.308;2023-03-26T11:02:29;94381.66;;;10.81;69.22
69171;BME280;56279;47.902;12.308;2023-03-26T11:06:58;94388.00;;;10.80;70.13
69171;BME280;56279;47.902;12.308;2023-03-26T11:09:02;94396.34;;;10.74;70.03
69171;BME280;56279;47.902;12.308;2023-03-26T11:13:37;94389.69;;;10.54;71.85
69171;BME280;56279;47.902;12.308;2023-03-26T11:16:03;94359.81;;;10.45;72.13
69171;BME280;56279;47.902;12.308;2023-03-26T11:18:15;94359.81;;;10.45;72.57
69171;BME280;56279;47.902;12.308;2023-03-26T11:20:40;94352.97;;;10.44;73.05
69171;BME280;56279;47.902;12.308;2023-03-26T11:25:29;94342.38;;;10.58;73.07
69171;BME280;56279;47.902;12.308;2023-03-26T11:27:38;94336.41;;;10.74;73.10
69171;BME280;56279;47.902;12.308;2023-03-26T11:32:09;94349.13;;;10.94;73.15
69171;BME280;56279;47.902;12.308;2023-03-26T11:34:18;94332.09;;;11.09;73.29
69171;BME280;56279;47.902;12.308;2023-03-26T11:36:28;94323.63;;;11.21;73.10
69171;BME280;56279;47.902;12.308;2023-03-26T11:38:37;94319.66;;;11.32;73.10
69171;BME280;56279;47.902;12.308;2023-03-26T11:40:42;94340.13;;;11.35;72.78
69171;BME280;56279;47.902;12.308;2023-03-26T11:43:00;94328.63;;;11.31;72.96
69171;BME280;56279;47.902;12.308;2023-03-26T11:45:05;94313.25;;;11.24;73.29
69171;BME280;56279;47.902;12.308;2023-03-26T11:47:10;94315.41;;;11.22;73.50
69171;BME280;56279;47.902;12.308;2023-03-26T11:49:17;94317.25;;;11.22;73.79
69171;BME280;56279;47.902;12.308;2023-03-26T11:51:38;94313.84;;;11.21;73.94
69171;BME280;56279;47.902;12.308;2023-03-26T11:53:40;94309.06;;;11.32;74.08
69171;BME280;56279;47.902;12.308;2023-03-26T11:57:54;94330.25;;;11.49;73.67
69171;BME280;56279;47.902;12.308;2023-03-26T12:00:04;94321.72;;;11.52;72.84
69171;BME280;56279;47.902;12.308;2023-03-26T12:02:26;94312.88;;;11.56;72.50
69171;BME280;56279;47.902;12.308;2023-03-26T12:04:42;94296.13;;;11.69;72.42
69171;BME280;56279;47.902;12.308;2023-03-26T12:07:20;94302.38;;;11.91;71.90
69171;BME280;56279;47.902;12.308;2023-03-26T12:09:23;94299.44;;;12.01;71.31
69171;BME280;56279;47.902;12.308;2023-03-26T12:11:27;94295.56;;;11.98;71.54
69171;BME280;56279;47.902;12.308;2023-03-26T12:13:34;94296.34;;;11.99;71.99
69171;BME280;56279;47.902;12.308;2023-03-26T12:15:41;94292.63;;;12.08;71.99
69171;BME280;56279;47.902;12.308;2023-03-26T12:17:44;94292.13;;;12.23;72.31
69171;BME280;56279;47.902;12.308;2023-03-26T12:19:48;94287.00;;;12.35;72.39
69171;BME280;56279;47.902;12.308;2023-03-26T12:21:51;94283.41;;;12.40;72.44
69171;BME280;56279;47.902;12.308;2023-03-26T12:23:56;94282.00;;;12.42;71.78
69171;BME280;56279;47.902;12.308;2023-03-26T12:26:19;94284.03;;;12.45;72.01
69171;BME280;56279;47.902;12.308;2023-03-26T12:28:21;94280.00;;;12.48;70.98
69171;BME280;56279;47.902;12.308;2023-03-26T12:30:26;94286.22;;;12.35;71.21
69171;BME280;56279;47.902;12.308;2023-03-26T12:32:31;94290.88;;;12.21;71.32
69171;BME280;56279;47.902;12.308;2023-03-26T12:34:35;94291.97;;;12.11;71.19
69171;BME280;56279;47.902;12.308;2023-03-26T12:36:37;94290.44;;;12.10;71.00
69171;BME280;56279;47.902;12.308;2023-03-26T12:38:39;94289.03;;;12.13;71.88
69171;BME280;56279;47.902;12.308;2023-03-26T12:40:42;94285.59;;;12.12;71.66
69171;BME280;56279;47.902;12.308;2023-03-26T12:43:22;94287.63;;;12.15;71.67
69171;BME280;56279;47.902;12.308;2023-03-26T12:45:55;94289.03;;;12.21;70.97
69171;BME280;56279;47.902;12.308;2023-03-26T12:47:59;94289.03;;;12.21;70.67
69171;BME280;56279;47.902;12.308;2023-03-26T12:50:01;94292.28;;;12.18;70.39
69171;BME280;56279;47.902;12.308;2023-03-26T12:59:20;94284.19;;;11.81;70.30
69171;BME280;56279;47.902;12.308;2023-03-26T13:04:02;94269.94;;;11.51;70.25
69171;BME280;56279;47.902;12.308;2023-03-26T13:06:46;94266.34;;;11.38;70.33
69171;BME280;56279;47.902;12.308;2023-03-26T13:15:39;94277.03;;;11.25;70.92
69171;BME280;56279;47.902;12.308;2023-03-26T13:24:57;94253.78;;;10.96;71.64
69171;BME280;56279;47.902;12.308;2023-03-26T13:29:42;94250.94;;;10.84;71.86
69171;BME280;56279;47.902;12.308;2023-03-26T13:32:17;94243.47;;;10.77;71.68
69171;BME280;56279;47.902;12.308;2023-03-26T13:34:35;94234.59;;;10.73;71.60
69171;BME280;56279;47.902;12.308;2023-03-26T13:39:36;94242.59;;;10.60;71.21
69171;BME280;56279;47.902;12.308;2023-03-26T13:44:36;94233.09;;;10.50;70.86
69171;BME280;56279;47.902;12.308;2023-03-26T13:46:44;94228.88;;;10.49;70.92
69171;BME280;56279;47.902;12.308;2023-03-26T13:48:54;94234.88;;;10.41;70.53
69171;BME280;56279;47.902;12.308;2023-03-26T13:51:02;94253.50;;;10.36;70.96
69171;BME280;56279;47.902;12.308;2023-03-26T13:53:10;94248.63;;;10.29;70.65
69171;BME280;56279;47.902;12.308;2023-03-26T13:55:37;94214.78;;;10.23;70.62
69171;BME280;56279;47.902;12.308;2023-03-26T13:57:45;94218.31;;;10.18;70.43
69171;BME280;56279;47.902;12.308;2023-03-26T14:02:35;94215.00;;;10.13;69.72
69171;BME280;56279;47.902;12.308;2023-03-26T14:04:51;94222.31;;;10.16;69.84
69171;BME280;56279;47.902;12.308;2023-03-26T14:09:04;94223.28;;;10.20;69.29
69171;BME280;56279;47.902;12.308;2023-03-26T14:11:11;94223.00;;;10.21;68.80
69171;BME280;56279;47.902;12.308;2023-03-26T14:13:34;94231.69;;;10.22;69.05
69171;BME280;56279;47.902;12.308;2023-03-26T14:15:39;94224.53;;;10.22;68.39
69171;BME280;56279;47.902;12.308;2023-03-26T14:17:52;94234.00;;;10.23;68.26
69171;BME280;56279;47.902;12.308;2023-03-26T14:25:02;94222.88;;;10.26;68.51
69171;BME280;56279;47.902;12.308;2023-03-26T14:29:43;94214.97;;;10.26;67.61
69171;BME280;56279;47.902;12.308;2023-03-26T14:34:41;94202.84;;;10.25;67.99